createdAt,value
2018-09-28T00:00:30.698Z,79.80
2018-09-28T00:01:10.985Z,79.80
2018-09-28T00:01:50.520Z,80.00
2018-09-28T00:02:29.323Z,79.80
2018-09-28T00:03:08.858Z,79.80
2018-09-28T00:03:47.394Z,80.10
2018-09-28T00:04:27.054Z,80.10
2018-09-28T00:05:06.450Z,80.30
2018-09-28T00:05:45.206Z,80.40
2018-09-28T00:06:24.927Z,80.30
2018-09-28T00:07:03.674Z,80.40
2018-09-28T00:07:42.161Z,80.50
2018-09-28T00:08:21.565Z,80.50
2018-09-28T00:09:43.388Z,80.30
2018-09-28T00:10:22.121Z,80.30
2018-09-28T00:11:00.788Z,80.60
2018-09-28T00:11:40.836Z,80.50
2018-09-28T00:12:19.397Z,80.60
2018-09-28T00:13:00.811Z,80.50
2018-09-28T00:13:39.486Z,80.70
2018-09-28T00:14:18.081Z,80.70
2018-09-28T00:14:57.661Z,80.60
2018-09-28T00:15:36.271Z,80.70
2018-09-28T00:16:15.654Z,80.40
2018-09-28T00:16:54.525Z,80.50
2018-09-28T00:17:33.538Z,80.50
2018-09-28T00:18:13.833Z,80.20
2018-09-28T00:18:58.642Z,80.00
2018-09-28T00:19:37.455Z,79.70
2018-09-28T00:20:16.474Z,79.80
2018-09-28T00:20:55.215Z,80.40
2018-09-28T00:21:35.397Z,80.40
2018-09-28T00:22:13.984Z,80.70
2018-09-28T00:22:52.719Z,81.00
2018-09-28T00:23:31.294Z,80.80
2018-09-28T00:24:10.041Z,80.90
2018-09-28T00:24:49.953Z,80.40
2018-09-28T00:25:28.581Z,80.70
2018-09-28T00:26:08.868Z,81.10
2018-09-28T00:26:47.573Z,80.60
2018-09-28T00:27:40.574Z,80.60
2018-09-28T00:28:19.335Z,80.60
2018-09-28T00:28:58.634Z,80.40
2018-09-28T00:29:37.301Z,80.60
2018-09-28T00:33:17.832Z,80.90
2018-09-28T00:33:56.816Z,80.70
2018-09-28T00:34:35.592Z,80.50
2018-09-28T00:35:14.348Z,80.20
2018-09-28T00:35:53.152Z,80.50
2018-09-28T00:36:31.790Z,80.90
2018-09-28T00:37:10.452Z,80.90
2018-09-28T00:37:50.647Z,80.60
2018-09-28T00:38:29.267Z,80.60
2018-09-28T00:39:09.269Z,81.00
2018-09-28T00:39:48.094Z,80.70
2018-09-28T00:40:27.752Z,81.10
2018-09-28T00:41:08.741Z,81.00
2018-09-28T00:41:47.330Z,80.70
2018-09-28T00:42:25.454Z,81.10
2018-09-28T00:43:03.572Z,81.40
2018-09-28T00:43:41.524Z,81.50
2018-09-28T00:44:19.429Z,81.90
2018-09-28T00:44:57.402Z,81.90
2018-09-28T00:45:36.304Z,81.60
2018-09-28T00:46:14.362Z,81.40
2018-09-28T00:46:52.364Z,81.20
2018-09-28T00:47:30.650Z,81.00
2018-09-28T00:48:08.575Z,80.80
2018-09-28T00:48:46.540Z,80.70
2018-09-28T00:49:24.407Z,80.70
2018-09-28T00:50:02.249Z,80.40
2018-09-28T00:50:40.300Z,80.50
2018-09-28T00:51:19.595Z,80.80
2018-09-28T00:51:57.485Z,80.40
2018-09-28T00:52:35.380Z,80.50
2018-09-28T00:53:13.311Z,80.70
2018-09-28T00:53:51.168Z,80.90
2018-09-28T00:54:29.111Z,81.20
2018-09-28T00:55:08.015Z,81.60
2018-09-28T00:55:45.889Z,81.80
2018-09-28T00:56:23.868Z,81.90
2018-09-28T00:57:01.780Z,82.10
2018-09-28T00:57:39.672Z,82.10
2018-09-28T00:58:17.652Z,82.80
2018-09-28T00:58:55.612Z,81.90
2018-09-28T00:59:33.589Z,81.90
2018-09-28T01:00:11.732Z,81.70
2018-09-28T01:00:49.647Z,81.70
2018-09-28T01:01:27.503Z,81.70
2018-09-28T01:02:05.454Z,81.90
2018-09-28T01:02:43.323Z,81.70
2018-09-28T01:03:21.349Z,81.90
2018-09-28T01:03:59.393Z,82.00
2018-09-28T01:04:37.329Z,81.70
2018-09-28T01:05:15.158Z,81.70
2018-09-28T01:05:53.014Z,82.00
2018-09-28T01:06:30.954Z,81.70
2018-09-28T01:07:09.813Z,81.50
2018-09-28T01:07:47.888Z,81.50
2018-09-28T01:08:25.751Z,81.90
2018-09-28T01:09:04.065Z,81.50
2018-09-28T01:09:42.156Z,81.40
2018-09-28T01:10:19.956Z,81.60
2018-09-28T01:10:57.952Z,81.70
2018-09-28T01:11:35.813Z,81.60
2018-09-28T01:12:13.861Z,81.40
2018-09-28T01:12:51.693Z,81.60
2018-09-28T01:13:30.659Z,81.40
2018-09-28T01:14:08.779Z,81.30
2018-09-28T01:14:46.698Z,81.20
2018-09-28T01:15:24.615Z,81.10
2018-09-28T01:16:02.622Z,81.10
2018-09-28T01:16:40.506Z,81.30
2018-09-28T01:17:18.392Z,81.50
2018-09-28T01:17:56.219Z,81.40
2018-09-28T01:18:34.734Z,81.30
2018-09-28T01:19:12.723Z,81.40
2018-09-28T01:19:50.587Z,81.30
2018-09-28T01:20:28.429Z,81.30
2018-09-28T01:21:06.447Z,81.40
2018-09-28T01:21:44.344Z,82.20
2018-09-28T01:22:23.420Z,81.60
2018-09-28T01:23:02.005Z,81.30
2018-09-28T01:23:40.062Z,81.30
2018-09-28T01:24:17.979Z,81.40
2018-09-28T01:24:55.984Z,81.50
2018-09-28T01:25:33.931Z,81.50
2018-09-28T01:26:11.904Z,81.60
2018-09-28T01:26:50.377Z,82.20
2018-09-28T01:27:30.393Z,81.60
2018-09-28T01:28:09.339Z,81.40
2018-09-28T01:28:47.164Z,81.40
2018-09-28T01:29:25.005Z,81.40
2018-09-28T01:30:02.951Z,81.50
2018-09-28T01:30:40.999Z,81.40
2018-09-28T01:31:18.935Z,81.50
2018-09-28T01:31:56.752Z,81.60
2018-09-28T01:32:34.809Z,81.60
2018-09-28T01:33:12.961Z,81.40
2018-09-28T01:33:50.932Z,81.60
2018-09-28T01:34:28.913Z,81.60
2018-09-28T01:35:07.133Z,81.60
2018-09-28T01:35:45.219Z,81.60
2018-09-28T01:36:23.155Z,81.40
2018-09-28T01:37:00.977Z,81.50
2018-09-28T01:37:38.996Z,81.60
2018-09-28T01:38:17.100Z,81.60
2018-09-28T01:38:54.956Z,81.50
2018-09-28T01:39:32.900Z,81.70
2018-09-28T01:40:10.781Z,81.50
2018-09-28T01:40:48.723Z,81.60
2018-09-28T01:41:27.761Z,81.60
2018-09-28T01:42:06.569Z,81.60
2018-09-28T01:42:44.676Z,81.40
2018-09-28T01:43:22.549Z,81.50
2018-09-28T01:44:00.557Z,81.50
2018-09-28T01:44:38.636Z,81.30
2018-09-28T01:45:17.391Z,81.40
2018-09-28T01:45:55.229Z,81.40
2018-09-28T01:46:33.336Z,81.40
2018-09-28T01:47:11.325Z,81.40
2018-09-28T01:47:49.408Z,81.30
2018-09-28T01:48:27.336Z,81.40
2018-09-28T01:49:05.311Z,81.40
2018-09-28T01:49:43.499Z,81.40
2018-09-28T01:50:24.489Z,81.10
2018-09-28T01:51:02.404Z,81.30
2018-09-28T01:51:40.259Z,81.20
2018-09-28T01:52:18.161Z,81.20
2018-09-28T01:52:56.301Z,81.20
2018-09-28T01:53:34.145Z,81.20
2018-09-28T01:54:12.073Z,81.10
2018-09-28T01:54:49.928Z,81.00
2018-09-28T01:55:27.839Z,81.10
2018-09-28T01:56:05.773Z,81.00
2018-09-28T01:56:43.616Z,81.00
2018-09-28T01:57:21.494Z,81.00
2018-09-28T01:57:59.444Z,81.10
2018-09-28T01:58:37.520Z,81.20
2018-09-28T01:59:15.479Z,81.30
2018-09-28T01:59:54.021Z,81.30
2018-09-28T02:00:31.965Z,81.10
2018-09-28T02:01:10.008Z,81.20
2018-09-28T02:01:47.941Z,81.30
2018-09-28T02:02:26.007Z,81.30
2018-09-28T02:03:03.981Z,81.20
2018-09-28T02:03:42.079Z,81.30
2018-09-28T02:04:20.091Z,81.30
2018-09-28T02:04:58.010Z,81.30
2018-09-28T02:05:35.985Z,81.20
2018-09-28T02:06:14.687Z,81.30
2018-09-28T02:06:52.761Z,81.40
2018-09-28T02:07:31.133Z,81.30
2018-09-28T02:08:09.143Z,81.20
2018-09-28T02:08:47.245Z,81.30
2018-09-28T02:09:25.245Z,81.20
2018-09-28T02:10:03.468Z,81.10
2018-09-28T02:10:41.392Z,81.10
2018-09-28T02:11:19.247Z,81.00
2018-09-28T02:11:57.165Z,81.00
2018-09-28T02:12:35.124Z,81.00
2018-09-28T02:13:15.090Z,81.00
2018-09-28T02:13:55.496Z,81.00
2018-09-28T02:14:33.474Z,80.90
2018-09-28T02:15:12.181Z,80.90
2018-09-28T02:15:51.864Z,80.90
2018-09-28T02:16:29.854Z,80.90
2018-09-28T02:17:07.803Z,80.90
2018-09-28T02:17:46.932Z,80.90
2018-09-28T02:18:25.005Z,81.00
2018-09-28T02:19:02.900Z,80.90
2018-09-28T02:19:40.809Z,81.00
2018-09-28T02:20:18.676Z,81.00
2018-09-28T02:20:57.630Z,81.00
2018-09-28T02:21:35.556Z,81.10
2018-09-28T02:22:13.698Z,81.10
2018-09-28T02:22:51.671Z,81.10
2018-09-28T02:23:29.562Z,81.00
2018-09-28T02:24:07.448Z,81.10
2018-09-28T02:24:45.412Z,81.00
2018-09-28T02:25:23.634Z,80.90
2018-09-28T02:26:01.516Z,80.90
2018-09-28T02:26:39.391Z,80.90
2018-09-28T02:27:17.492Z,80.90
2018-09-28T02:27:55.344Z,80.90
2018-09-28T02:28:33.313Z,80.90
2018-09-28T02:29:11.415Z,80.90
2018-09-28T02:29:49.334Z,81.00
2018-09-28T02:30:27.288Z,80.90
2018-09-28T02:31:05.509Z,80.90
2018-09-28T02:31:43.407Z,80.90
2018-09-28T02:32:21.364Z,80.90
2018-09-28T02:32:59.350Z,80.80
2018-09-28T02:33:37.394Z,80.80
2018-09-28T02:34:15.214Z,80.80
2018-09-28T02:34:53.335Z,80.70
2018-09-28T02:35:32.072Z,80.70
2018-09-28T02:36:10.232Z,80.70
2018-09-28T02:36:48.468Z,80.70
2018-09-28T02:37:26.430Z,80.80
2018-09-28T02:38:04.510Z,80.80
2018-09-28T02:38:42.415Z,80.70
2018-09-28T02:39:21.039Z,80.70
2018-09-28T02:39:58.911Z,80.60
2018-09-28T02:40:36.975Z,80.60
2018-09-28T02:41:14.821Z,80.70
2018-09-28T02:41:52.845Z,80.70
2018-09-28T02:42:30.856Z,80.80
2018-09-28T02:43:08.739Z,80.80
2018-09-28T02:43:46.728Z,80.90
2018-09-28T02:44:25.450Z,81.00
2018-09-28T02:45:04.211Z,81.10
2018-09-28T02:45:42.117Z,81.10
2018-09-28T02:46:20.110Z,80.90
2018-09-28T02:46:58.153Z,80.80
2018-09-28T02:47:36.046Z,80.80
2018-09-28T02:48:13.940Z,80.70
2018-09-28T02:48:51.880Z,80.60
2018-09-28T02:49:29.767Z,80.60
2018-09-28T02:50:07.615Z,80.60
2018-09-28T02:50:45.572Z,80.50
2018-09-28T02:51:23.432Z,80.50
2018-09-28T02:52:01.628Z,80.40
2018-09-28T02:52:39.828Z,80.40
2018-09-28T02:53:21.741Z,80.30
2018-09-28T02:53:59.626Z,80.20
2018-09-28T02:54:37.545Z,80.10
2018-09-28T02:55:15.391Z,80.20
2018-09-28T02:55:53.776Z,80.20
2018-09-28T02:56:31.794Z,80.30
2018-09-28T02:57:09.726Z,80.40
2018-09-28T02:57:47.541Z,80.30
2018-09-28T02:58:25.676Z,80.30
2018-09-28T02:59:03.848Z,80.40
2018-09-28T02:59:42.040Z,80.40
2018-09-28T03:00:33.988Z,80.50
2018-09-28T03:01:13.040Z,81.20
2018-09-28T03:01:51.017Z,80.60
2018-09-28T03:02:29.090Z,81.40
2018-09-28T03:03:06.972Z,80.60
2018-09-28T03:03:44.887Z,80.60
2018-09-28T03:04:22.778Z,80.50
2018-09-28T03:05:00.658Z,80.60
2018-09-28T03:05:38.749Z,80.50
2018-09-28T03:06:16.594Z,80.60
2018-09-28T03:06:54.598Z,80.50
2018-09-28T03:07:32.694Z,80.50
2018-09-28T03:08:12.150Z,80.50
2018-09-28T03:08:50.057Z,80.50
2018-09-28T03:09:28.536Z,80.50
2018-09-28T03:10:06.561Z,80.40
2018-09-28T03:10:44.387Z,80.40
2018-09-28T03:11:22.494Z,80.40
2018-09-28T03:12:00.591Z,80.40
2018-09-28T03:12:38.510Z,80.40
2018-09-28T03:13:16.397Z,80.40
2018-09-28T03:13:54.206Z,80.40
2018-09-28T03:14:32.088Z,81.20
2018-09-28T03:15:10.131Z,80.40
2018-09-28T03:15:48.110Z,80.40
2018-09-28T03:16:26.148Z,80.40
2018-09-28T03:17:03.946Z,80.30
2018-09-28T03:17:41.786Z,80.40
2018-09-28T03:18:19.629Z,80.40
2018-09-28T03:18:57.574Z,80.40
2018-09-28T03:19:35.499Z,80.40
2018-09-28T03:20:14.317Z,80.30
2018-09-28T03:20:52.248Z,80.40
2018-09-28T03:21:30.660Z,80.30
2018-09-28T03:22:08.697Z,80.30
2018-09-28T03:22:46.638Z,80.30
2018-09-28T03:23:24.507Z,80.30
2018-09-28T03:24:02.852Z,80.30
2018-09-28T03:24:41.162Z,80.30
2018-09-28T03:25:19.669Z,80.30
2018-09-28T03:25:57.571Z,80.30
2018-09-28T03:26:35.564Z,80.20
2018-09-28T03:27:13.445Z,80.10
2018-09-28T03:27:51.380Z,80.00
2018-09-28T03:28:29.160Z,80.30
2018-09-28T03:29:07.097Z,80.10
2018-09-28T03:29:44.982Z,80.20
2018-09-28T03:30:22.813Z,80.20
2018-09-28T03:31:00.768Z,80.20
2018-09-28T03:31:38.662Z,80.10
2018-09-28T03:32:17.437Z,80.30
2018-09-28T03:32:55.366Z,80.20
2018-09-28T03:33:34.319Z,80.30
2018-09-28T03:34:12.204Z,80.10
2018-09-28T03:34:50.361Z,80.20
2018-09-28T03:35:28.249Z,80.20
2018-09-28T03:36:06.290Z,80.20
2018-09-28T03:36:44.185Z,81.00
2018-09-28T03:37:22.109Z,80.20
2018-09-28T03:37:59.995Z,80.20
2018-09-28T03:38:38.492Z,80.10
2018-09-28T03:39:18.433Z,80.20
2018-09-28T03:39:56.412Z,80.30
2018-09-28T03:40:34.375Z,80.00
2018-09-28T03:41:12.334Z,80.20
2018-09-28T03:41:51.138Z,80.30
2018-09-28T03:42:29.160Z,80.20
2018-09-28T03:43:08.152Z,80.20
2018-09-28T03:43:46.103Z,80.20
2018-09-28T03:44:24.148Z,80.10
2018-09-28T03:45:02.596Z,80.10
2018-09-28T03:45:40.512Z,79.80
2018-09-28T03:46:18.435Z,80.10
2018-09-28T03:46:56.418Z,80.00
2018-09-28T03:47:34.594Z,80.00
2018-09-28T03:48:12.485Z,80.10
2018-09-28T03:48:50.352Z,79.90
2018-09-28T03:49:28.436Z,80.10
2018-09-28T03:50:06.652Z,80.10
2018-09-28T03:50:44.522Z,79.90
2018-09-28T03:51:22.552Z,80.10
2018-09-28T03:52:00.600Z,80.00
2018-09-28T03:52:38.468Z,79.90
2018-09-28T03:53:16.297Z,79.90
2018-09-28T03:53:54.206Z,79.90
2018-09-28T03:54:33.356Z,79.80
2018-09-28T03:55:11.204Z,79.90
2018-09-28T03:55:49.374Z,79.90
2018-09-28T03:56:27.200Z,79.60
2018-09-28T03:57:05.445Z,79.90
2018-09-28T03:57:43.989Z,79.70
2018-09-28T03:58:26.349Z,79.60
2018-09-28T03:59:05.300Z,79.60
2018-09-28T03:59:43.214Z,80.10
2018-09-28T04:00:21.174Z,79.50
2018-09-28T04:01:00.096Z,79.40
2018-09-28T04:01:37.994Z,79.40
2018-09-28T04:02:16.073Z,79.40
2018-09-28T04:02:55.190Z,79.30
2018-09-28T04:03:33.254Z,79.30
2018-09-28T04:04:11.027Z,79.30
2018-09-28T04:04:48.882Z,79.40
2018-09-28T04:05:26.807Z,79.30
2018-09-28T04:06:05.786Z,79.40
2018-09-28T04:06:43.787Z,79.30
2018-09-28T04:07:22.149Z,79.30
2018-09-28T04:08:00.016Z,79.30
2018-09-28T04:08:37.949Z,79.20
2018-09-28T04:09:15.870Z,79.10
2018-09-28T04:09:53.694Z,79.20
2018-09-28T04:10:31.621Z,79.20
2018-09-28T04:11:09.809Z,79.10
2018-09-28T04:11:47.828Z,79.10
2018-09-28T04:12:25.824Z,79.10
2018-09-28T04:13:04.748Z,79.00
2018-09-28T04:13:42.637Z,79.70
2018-09-28T04:14:21.602Z,79.00
2018-09-28T04:15:00.420Z,78.90
2018-09-28T04:15:38.425Z,78.80
2018-09-28T04:16:17.683Z,78.80
2018-09-28T04:16:55.580Z,78.80
2018-09-28T04:17:35.239Z,78.80
2018-09-28T04:18:13.127Z,78.70
2018-09-28T04:18:51.022Z,78.60
2018-09-28T04:19:29.098Z,78.60
2018-09-28T04:20:07.114Z,78.70
2018-09-28T04:20:45.053Z,78.50
2018-09-28T04:21:23.073Z,78.50
2018-09-28T04:22:04.403Z,78.60
2018-09-28T04:22:42.325Z,78.50
2018-09-28T04:23:20.988Z,78.40
2018-09-28T04:23:58.841Z,78.40
2018-09-28T04:24:36.717Z,78.40
2018-09-28T04:25:14.802Z,78.40
2018-09-28T04:25:52.816Z,78.30
2018-09-28T04:26:30.649Z,78.30
2018-09-28T04:27:09.053Z,78.30
2018-09-28T04:27:48.924Z,78.40
2018-09-28T04:28:27.897Z,78.30
2018-09-28T04:29:05.781Z,78.30
2018-09-28T04:29:43.625Z,78.20
2018-09-28T04:30:21.536Z,78.20
2018-09-28T04:30:59.688Z,78.20
2018-09-28T04:31:37.600Z,78.20
2018-09-28T04:32:15.638Z,78.20
2018-09-28T04:32:53.474Z,78.10
2018-09-28T04:33:31.495Z,78.10
2018-09-28T04:34:10.127Z,78.10
2018-09-28T04:34:48.315Z,78.10
2018-09-28T04:35:26.238Z,78.00
2018-09-28T04:36:04.333Z,78.10
2018-09-28T04:36:42.133Z,78.00
2018-09-28T04:37:20.008Z,77.90
2018-09-28T04:37:57.895Z,77.90
2018-09-28T04:38:35.772Z,77.90
2018-09-28T04:39:13.783Z,78.00
2018-09-28T04:39:51.728Z,78.00
2018-09-28T04:40:30.863Z,77.90
2018-09-28T04:41:08.701Z,78.00
2018-09-28T04:41:46.556Z,77.90
2018-09-28T04:42:24.393Z,77.90
2018-09-28T04:43:02.281Z,77.90
2018-09-28T04:43:40.163Z,78.00
2018-09-28T04:44:18.264Z,78.10
2018-09-28T04:44:57.119Z,77.90
2018-09-28T04:45:35.088Z,77.80
2018-09-28T04:46:13.277Z,77.80
2018-09-28T04:46:51.932Z,77.80
2018-09-28T04:47:30.930Z,77.80
2018-09-28T04:48:09.818Z,77.80
2018-09-28T04:48:48.702Z,77.80
2018-09-28T04:49:26.532Z,77.80
2018-09-28T04:50:04.435Z,77.80
2018-09-28T04:50:42.248Z,77.90
2018-09-28T04:51:21.090Z,77.80
2018-09-28T04:51:58.881Z,77.80
2018-09-28T04:52:37.015Z,77.80
2018-09-28T04:53:14.872Z,77.70
2018-09-28T04:53:52.889Z,77.60
2018-09-28T04:54:30.842Z,77.70
2018-09-28T04:55:08.671Z,77.70
2018-09-28T04:55:46.546Z,77.60
2018-09-28T04:56:24.417Z,77.70
2018-09-28T04:57:02.540Z,77.60
2018-09-28T04:57:40.621Z,77.70
2018-09-28T04:58:18.480Z,77.10
2018-09-28T04:58:56.780Z,77.50
2018-09-28T04:59:34.848Z,77.50
2018-09-28T05:00:13.078Z,77.60
2018-09-28T05:00:51.127Z,77.60
2018-09-28T05:01:29.109Z,77.30
2018-09-28T05:02:08.323Z,77.30
2018-09-28T05:02:46.644Z,77.30
2018-09-28T05:03:24.663Z,77.30
2018-09-28T05:04:02.853Z,77.00
2018-09-28T05:04:40.747Z,77.10
2018-09-28T05:05:18.676Z,77.20
2018-09-28T05:05:57.751Z,76.80
2018-09-28T05:06:35.616Z,76.90
2018-09-28T05:07:13.799Z,77.00
2018-09-28T05:07:51.734Z,77.50
2018-09-28T05:08:29.889Z,77.00
2018-09-28T05:09:11.053Z,77.70
2018-09-28T05:09:48.999Z,77.00
2018-09-28T05:10:28.111Z,76.80
2018-09-28T05:11:06.195Z,76.90
2018-09-28T05:11:44.286Z,76.70
2018-09-28T05:12:22.435Z,76.90
2018-09-28T05:13:00.389Z,76.70
2018-09-28T05:13:38.788Z,76.80
2018-09-28T05:14:16.684Z,76.70
2018-09-28T05:14:54.752Z,76.40
2018-09-28T05:15:32.669Z,76.40
2018-09-28T05:16:10.685Z,76.20
2018-09-28T05:16:48.749Z,76.30
2018-09-28T05:17:26.684Z,76.40
2018-09-28T05:18:04.687Z,76.10
2018-09-28T05:18:42.562Z,76.20
2018-09-28T05:19:21.231Z,75.90
2018-09-28T05:20:00.006Z,76.40
2018-09-28T05:20:37.820Z,76.00
2018-09-28T05:21:16.435Z,75.80
2018-09-28T05:21:54.420Z,76.10
2018-09-28T05:22:32.336Z,75.80
2018-09-28T05:23:10.273Z,75.60
2018-09-28T05:23:48.167Z,76.20
2018-09-28T05:24:26.181Z,75.40
2018-09-28T05:25:03.997Z,75.20
2018-09-28T05:25:41.952Z,75.10
2018-09-28T05:26:19.921Z,74.90
2018-09-28T05:26:58.236Z,74.70
2018-09-28T05:27:37.202Z,74.70
2018-09-28T05:28:15.953Z,74.60
2018-09-28T05:28:53.811Z,74.80
2018-09-28T05:29:31.668Z,74.60
2018-09-28T05:30:09.580Z,74.70
2018-09-28T05:30:53.964Z,74.80
2018-09-28T05:31:25.585Z,74.60
2018-09-28T05:32:03.686Z,75.00
2018-09-28T05:32:42.748Z,74.20
2018-09-28T05:33:20.689Z,74.30
2018-09-28T05:33:58.592Z,74.30
2018-09-28T05:34:38.411Z,73.70
2018-09-28T05:35:16.350Z,74.40
2018-09-28T05:35:54.340Z,73.80
2018-09-28T05:36:32.272Z,74.00
2018-09-28T05:37:10.184Z,73.30
2018-09-28T05:37:48.158Z,73.60
2018-09-28T05:38:27.016Z,73.60
2018-09-28T05:39:05.510Z,73.70
2018-09-28T05:39:43.579Z,73.80
2018-09-28T05:40:21.527Z,73.50
2018-09-28T05:41:00.619Z,73.90
2018-09-28T05:41:38.437Z,73.60
2018-09-28T05:42:16.424Z,73.90
2018-09-28T05:42:54.308Z,74.30
2018-09-28T05:43:32.152Z,74.10
2018-09-28T05:44:11.052Z,73.50
2018-09-28T05:44:48.922Z,73.70
2018-09-28T05:45:29.829Z,74.10
2018-09-28T05:46:07.910Z,73.90
2018-09-28T05:46:45.916Z,73.70
2018-09-28T05:47:23.748Z,73.90
2018-09-28T05:48:03.296Z,73.70
2018-09-28T05:48:41.334Z,74.00
2018-09-28T05:49:19.286Z,73.90
2018-09-28T05:49:57.111Z,74.00
2018-09-28T05:50:35.039Z,73.90
2018-09-28T05:51:12.987Z,73.80
2018-09-28T05:51:50.937Z,73.70
2018-09-28T05:52:28.900Z,73.90
2018-09-28T05:53:06.805Z,74.20
2018-09-28T05:53:45.682Z,73.70
2018-09-28T05:54:24.794Z,74.00
2018-09-28T05:55:03.543Z,73.90
2018-09-28T05:55:41.364Z,74.20
2018-09-28T05:56:19.373Z,74.00
2018-09-28T05:56:57.258Z,74.40
2018-09-28T05:57:35.251Z,73.50
2018-09-28T05:58:18.551Z,73.50
2018-09-28T05:59:00.677Z,73.50
2018-09-28T05:59:42.722Z,73.60
2018-09-28T06:00:24.726Z,73.70
2018-09-28T06:01:06.736Z,73.70
2018-09-28T06:01:48.879Z,73.60
2018-09-28T06:02:31.070Z,73.90
2018-09-28T06:03:15.419Z,73.60
2018-09-28T06:03:57.602Z,73.50
2018-09-28T06:04:39.520Z,73.70
2018-09-28T06:05:21.567Z,73.70
2018-09-28T06:05:59.904Z,73.90
2018-09-28T06:06:37.931Z,73.50
2018-09-28T06:07:16.052Z,73.50
2018-09-28T06:07:53.973Z,73.40
2018-09-28T06:08:32.149Z,73.50
2018-09-28T06:09:13.175Z,73.30
2018-09-28T06:09:55.785Z,73.40
2018-09-28T06:10:33.679Z,73.30
2018-09-28T06:11:14.319Z,73.50
2018-09-28T06:11:52.384Z,73.70
2018-09-28T06:12:30.361Z,74.20
2018-09-28T06:13:08.329Z,73.40
2018-09-28T06:13:46.232Z,73.20
2018-09-28T06:14:24.175Z,73.10
2018-09-28T06:15:02.957Z,73.20
2018-09-28T06:15:40.844Z,73.10
2018-09-28T06:16:18.691Z,73.00
2018-09-28T06:16:59.666Z,73.20
2018-09-28T06:17:38.442Z,73.10
2018-09-28T06:18:16.458Z,73.40
2018-09-28T06:18:54.590Z,73.30
2018-09-28T06:19:32.465Z,73.40
2018-09-28T06:20:10.615Z,73.40
2018-09-28T06:20:49.590Z,73.30
2018-09-28T06:21:27.475Z,73.40
2018-09-28T06:22:06.863Z,73.40
2018-09-28T06:22:44.752Z,73.30
2018-09-28T06:23:22.680Z,73.40
2018-09-28T06:24:00.731Z,73.40
2018-09-28T06:24:38.857Z,73.50
2018-09-28T06:25:17.081Z,73.50
2018-09-28T06:25:55.097Z,73.50
2018-09-28T06:26:33.923Z,73.20
2018-09-28T06:27:11.848Z,73.30
2018-09-28T06:27:49.885Z,73.20
2018-09-28T06:28:27.719Z,73.50
2018-09-28T06:29:06.547Z,73.60
2018-09-28T06:29:44.517Z,73.40
2018-09-28T06:30:23.696Z,73.20
2018-09-28T06:31:01.787Z,73.40
2018-09-28T06:31:39.731Z,73.40
2018-09-28T06:32:17.588Z,73.40
2018-09-28T06:32:55.403Z,73.20
2018-09-28T06:33:33.272Z,73.50
2018-09-28T06:34:11.371Z,73.30
2018-09-28T06:34:49.482Z,73.40
2018-09-28T06:35:27.420Z,73.40
2018-09-28T06:36:05.412Z,73.50
2018-09-28T06:36:43.974Z,73.30
2018-09-28T06:37:22.749Z,73.40
2018-09-28T06:38:00.884Z,73.40
2018-09-28T06:38:39.969Z,73.20
2018-09-28T06:39:18.011Z,73.20
2018-09-28T06:39:56.140Z,73.20
2018-09-28T06:40:34.148Z,74.00
2018-09-28T06:41:12.093Z,73.20
2018-09-28T06:41:49.916Z,73.10
2018-09-28T06:42:28.041Z,73.20
2018-09-28T06:43:06.129Z,73.10
2018-09-28T06:43:44.513Z,73.40
2018-09-28T06:44:22.564Z,73.00
2018-09-28T06:45:00.536Z,73.00
2018-09-28T06:45:38.452Z,73.00
2018-09-28T06:46:16.610Z,72.80
2018-09-28T06:46:54.463Z,72.90
2018-09-28T06:47:33.604Z,72.80
2018-09-28T06:48:11.863Z,72.90
2018-09-28T06:48:49.777Z,72.90
2018-09-28T06:49:27.641Z,72.80
2018-09-28T06:50:05.559Z,72.80
2018-09-28T06:50:43.467Z,72.70
2018-09-28T06:51:22.282Z,72.70
2018-09-28T06:52:00.115Z,72.90
2018-09-28T06:52:38.268Z,72.70
2018-09-28T06:53:16.130Z,72.70
2018-09-28T06:53:54.251Z,73.20
2018-09-28T06:54:33.295Z,73.40
2018-09-28T06:55:11.231Z,72.60
2018-09-28T06:55:49.043Z,72.80
2018-09-28T06:56:26.900Z,72.70
2018-09-28T06:57:04.799Z,72.70
2018-09-28T06:57:42.879Z,72.60
2018-09-28T06:58:20.865Z,72.70
2018-09-28T06:58:58.842Z,72.60
2018-09-28T06:59:36.717Z,72.70
2018-09-28T07:00:16.929Z,72.80
2018-09-28T07:00:54.877Z,72.70
2018-09-28T07:01:32.796Z,72.60
2018-09-28T07:02:11.511Z,72.50
2018-09-28T07:02:49.569Z,72.60
2018-09-28T07:03:27.492Z,72.50
2018-09-28T07:04:05.380Z,72.60
2018-09-28T07:04:43.313Z,72.60
2018-09-28T07:05:21.396Z,72.30
2018-09-28T07:06:00.663Z,72.50
2018-09-28T07:06:38.611Z,72.40
2018-09-28T07:07:16.597Z,72.60
2018-09-28T07:07:54.656Z,72.40
2018-09-28T07:08:32.478Z,72.30
2018-09-28T07:09:13.826Z,72.40
2018-09-28T07:09:51.709Z,72.20
2018-09-28T07:10:29.543Z,72.50
2018-09-28T07:11:07.856Z,72.30
2018-09-28T07:11:47.512Z,72.40
2018-09-28T07:12:25.454Z,72.20
2018-09-28T07:13:03.466Z,71.80
2018-09-28T07:13:42.275Z,72.20
2018-09-28T07:14:20.247Z,72.20
2018-09-28T07:14:58.464Z,72.10
2018-09-28T07:15:36.249Z,72.10
2018-09-28T07:16:14.147Z,71.70
2018-09-28T07:16:52.262Z,71.90
2018-09-28T07:17:30.158Z,71.70
2018-09-28T07:18:08.022Z,71.60
2018-09-28T07:18:46.248Z,71.70
2018-09-28T07:19:24.119Z,71.70
2018-09-28T07:20:02.283Z,71.90
2018-09-28T07:20:40.157Z,71.60
2018-09-28T07:21:18.075Z,71.90
2018-09-28T07:21:56.140Z,72.00
2018-09-28T07:22:34.216Z,71.80
2018-09-28T07:23:12.220Z,71.90
2018-09-28T07:23:50.086Z,72.00
2018-09-28T07:24:30.073Z,71.80
2018-09-28T07:25:08.091Z,71.70
2018-09-28T07:25:46.280Z,71.70
2018-09-28T07:26:24.196Z,71.70
2018-09-28T07:27:02.312Z,71.70
2018-09-28T07:27:40.210Z,71.60
2018-09-28T07:28:18.045Z,71.80
2018-09-28T07:28:56.101Z,71.70
2018-09-28T07:29:34.175Z,71.80
2018-09-28T07:30:11.868Z,71.90
2018-09-28T07:30:49.893Z,71.60
2018-09-28T07:31:27.787Z,71.70
2018-09-28T07:32:05.663Z,71.80
2018-09-28T07:32:43.574Z,71.90
2018-09-28T07:33:21.460Z,71.80
2018-09-28T07:33:59.286Z,71.70
2018-09-28T07:34:37.115Z,71.90
2018-09-28T07:35:15.246Z,72.00
2018-09-28T07:35:53.296Z,71.70
2018-09-28T07:36:31.350Z,71.50
2018-09-28T07:37:09.396Z,71.80
2018-09-28T07:37:47.445Z,71.60
2018-09-28T07:38:25.370Z,71.70
2018-09-28T07:39:03.735Z,71.80
2018-09-28T07:39:41.802Z,71.70
2018-09-28T07:40:19.737Z,71.80
2018-09-28T07:40:57.520Z,71.70
2018-09-28T07:41:35.386Z,71.80
2018-09-28T07:42:13.284Z,71.50
2018-09-28T07:42:51.157Z,71.60
2018-09-28T07:43:28.988Z,71.60
2018-09-28T07:44:07.039Z,71.80
2018-09-28T07:44:44.910Z,71.60
2018-09-28T07:45:23.040Z,71.80
2018-09-28T07:46:00.927Z,71.70
2018-09-28T07:46:38.838Z,71.70
2018-09-28T07:47:16.785Z,71.70
2018-09-28T07:47:54.931Z,71.90
2018-09-28T07:48:33.677Z,71.70
2018-09-28T07:49:13.144Z,71.70
2018-09-28T07:49:51.139Z,71.60
2018-09-28T07:50:29.416Z,71.80
2018-09-28T07:51:07.475Z,71.50
2018-09-28T07:51:45.642Z,71.60
2018-09-28T07:52:23.520Z,71.40
2018-09-28T07:53:01.327Z,71.50
2018-09-28T07:53:39.239Z,71.40
2018-09-28T07:54:17.145Z,71.60
2018-09-28T07:54:55.073Z,71.60
2018-09-28T07:55:32.962Z,71.60
2018-09-28T07:56:10.850Z,71.70
2018-09-28T07:56:48.748Z,71.70
2018-09-28T07:57:26.673Z,71.60
2018-09-28T07:58:05.385Z,71.50
2018-09-28T07:58:43.311Z,71.60
2018-09-28T07:59:21.203Z,71.70
2018-09-28T07:59:59.051Z,71.60
2018-09-28T08:00:37.958Z,71.40
2018-09-28T08:01:18.546Z,71.40
2018-09-28T08:01:56.467Z,71.40
2018-09-28T08:02:34.233Z,71.60
2018-09-28T08:03:12.138Z,71.40
2018-09-28T08:03:50.179Z,71.50
2018-09-28T08:04:28.263Z,71.60
2018-09-28T08:05:06.388Z,71.40
2018-09-28T08:05:44.407Z,72.20
2018-09-28T08:06:22.298Z,71.50
2018-09-28T08:07:00.194Z,71.30
2018-09-28T08:07:38.190Z,71.40
2018-09-28T08:08:16.470Z,71.50
2018-09-28T08:08:54.220Z,71.40
2018-09-28T08:09:32.287Z,71.50
2018-09-28T08:10:10.364Z,71.30
2018-09-28T08:10:49.176Z,71.30
2018-09-28T08:11:27.118Z,71.40
2018-09-28T08:12:05.026Z,71.10
2018-09-28T08:12:43.213Z,71.30
2018-09-28T08:13:21.339Z,71.20
2018-09-28T08:13:59.153Z,71.10
2018-09-28T08:14:37.826Z,70.90
2018-09-28T08:15:16.801Z,71.10
2018-09-28T08:15:54.663Z,71.00
2018-09-28T08:16:32.660Z,71.10
2018-09-28T08:17:10.634Z,71.00
2018-09-28T08:17:48.479Z,71.10